createdAt,value
2023-02-28T00:00:11.346Z,-4.10
2023-02-28T00:03:01.138Z,-4.10
2023-02-28T00:05:32.137Z,-4.00
2023-02-28T00:08:03.042Z,-4.10
2023-02-28T00:10:34.085Z,-4.10
2023-02-28T00:13:05.399Z,-4.20
2023-02-28T00:15:35.678Z,-4.10
2023-02-28T00:18:05.658Z,-4.10
2023-02-28T00:20:35.736Z,-4.20
2023-02-28T00:23:06.466Z,-4.10
2023-02-28T00:25:36.169Z,-4.20
2023-02-28T00:28:05.727Z,-4.20
2023-02-28T00:30:35.816Z,-4.30
2023-02-28T00:33:05.568Z,-4.20
2023-02-28T00:35:35.375Z,-4.30
2023-02-28T00:38:06.384Z,-4.30
2023-02-28T00:40:36.362Z,-4.30
2023-02-28T00:43:06.234Z,-4.30
2023-02-28T00:45:36.394Z,-4.30
2023-02-28T00:48:05.971Z,-4.40
2023-02-28T00:50:36.173Z,-4.50
2023-02-28T00:53:07.032Z,-4.50
2023-02-28T00:55:36.906Z,-4.50
2023-02-28T00:58:07.039Z,-4.50
2023-02-28T01:00:36.961Z,-4.50
2023-02-28T01:03:06.908Z,-4.50
2023-02-28T01:05:36.706Z,-4.50
2023-02-28T01:08:08.143Z,-4.60
2023-02-28T01:10:38.144Z,-4.60
2023-02-28T01:13:07.473Z,-4.70
2023-02-28T01:15:37.354Z,-4.70
2023-02-28T01:18:06.770Z,-4.70
2023-02-28T01:20:38.653Z,-4.70
2023-02-28T01:23:09.467Z,-4.70
2023-02-28T01:25:40.260Z,-4.70
2023-02-28T01:28:09.656Z,-4.70
2023-02-28T01:30:39.309Z,-4.80
2023-02-28T01:33:08.626Z,-4.80
2023-02-28T01:35:39.089Z,-4.80
2023-02-28T01:38:21.659Z,-4.80
2023-02-28T01:40:53.243Z,-4.80
2023-02-28T01:43:25.453Z,-4.80
2023-02-28T01:45:56.760Z,-4.80
2023-02-28T01:48:28.903Z,-4.80
2023-02-28T01:51:03.914Z,-4.70
2023-02-28T01:53:38.782Z,-4.70
2023-02-28T01:56:11.720Z,-4.70
2023-02-28T01:58:41.232Z,-4.70
2023-02-28T02:01:10.826Z,-4.60
2023-02-28T02:03:41.373Z,-4.60
2023-02-28T02:06:11.227Z,-4.60
2023-02-28T02:08:42.521Z,-4.60
2023-02-28T02:11:14.354Z,-4.60
2023-02-28T02:14:10.758Z,-4.60
2023-02-28T02:16:53.752Z,-4.60
2023-02-28T02:20:14.688Z,-4.70
2023-02-28T02:23:17.341Z,-4.70
2023-02-28T02:25:52.157Z,-4.70
2023-02-28T02:28:59.160Z,-4.70
2023-02-28T02:32:01.753Z,-4.80
2023-02-28T02:34:54.782Z,-4.80
2023-02-28T02:37:32.525Z,-4.80
2023-02-28T02:40:09.289Z,-4.90
2023-02-28T02:42:46.410Z,-4.90
2023-02-28T02:45:21.735Z,-5.00
2023-02-28T02:47:53.036Z,-5.00
2023-02-28T02:50:28.887Z,-4.90
2023-02-28T02:53:01.583Z,-4.80
2023-02-28T02:55:32.322Z,-4.90
2023-02-28T02:58:05.060Z,-4.80
2023-02-28T03:00:38.402Z,-4.90
2023-02-28T03:03:09.735Z,-4.90
2023-02-28T03:05:47.171Z,-4.80
2023-02-28T03:08:17.391Z,-4.80
2023-02-28T03:10:48.674Z,-4.90
2023-02-28T03:13:49.915Z,-4.90
2023-02-28T03:16:44.992Z,-4.90
2023-02-28T03:19:37.886Z,-4.80
2023-02-28T03:22:32.081Z,-4.80
2023-02-28T03:25:09.304Z,-4.90
2023-02-28T03:27:44.358Z,-5.10
2023-02-28T03:30:25.751Z,-5.20
2023-02-28T03:32:59.925Z,-5.20
2023-02-28T03:35:33.989Z,-5.30
2023-02-28T03:38:15.240Z,-5.30
2023-02-28T03:40:50.115Z,-5.30
2023-02-28T03:43:25.348Z,-5.30
2023-02-28T03:45:56.934Z,-5.30
2023-02-28T03:48:33.794Z,-5.30
2023-02-28T03:51:04.726Z,-5.30
2023-02-28T03:53:38.582Z,-5.30
2023-02-28T03:56:14.215Z,-5.30
2023-02-28T03:58:50.608Z,-5.20
2023-02-28T04:01:24.642Z,-5.20
2023-02-28T04:03:54.726Z,-5.10
2023-02-28T04:06:25.897Z,-5.10
2023-02-28T04:08:57.011Z,-5.10
2023-02-28T04:11:33.307Z,-5.00
2023-02-28T04:14:03.655Z,-4.90
2023-02-28T04:16:35.685Z,-4.90
2023-02-28T04:19:07.680Z,-4.80
2023-02-28T04:21:40.189Z,-4.80
2023-02-28T04:24:15.540Z,-4.80
2023-02-28T04:26:46.437Z,-4.80
2023-02-28T04:29:20.824Z,-4.70
2023-02-28T04:31:50.703Z,-4.60
2023-02-28T04:34:21.233Z,-4.60
2023-02-28T04:37:06.083Z,-4.60
2023-02-28T04:39:42.262Z,-4.60
2023-02-28T04:42:12.550Z,-4.60
2023-02-28T04:44:42.673Z,-4.60
2023-02-28T04:47:11.911Z,-4.60
2023-02-28T04:49:42.795Z,-4.50
2023-02-28T04:52:12.413Z,-4.50
2023-02-28T04:54:43.936Z,-4.50
2023-02-28T04:57:13.400Z,-4.50
2023-02-28T04:59:43.419Z,-4.50
2023-02-28T05:02:12.977Z,-4.60
2023-02-28T05:04:42.784Z,-4.50
2023-02-28T05:07:12.261Z,-4.60
2023-02-28T05:09:43.493Z,-4.60
2023-02-28T05:12:13.459Z,-4.60
2023-02-28T05:14:43.668Z,-4.70
2023-02-28T05:17:12.961Z,-4.60
2023-02-28T05:19:42.683Z,-4.70
2023-02-28T05:22:17.363Z,-4.70
2023-02-28T05:24:48.885Z,-4.70
2023-02-28T05:27:18.170Z,-4.70
2023-02-28T05:29:47.766Z,-4.70
2023-02-28T05:32:17.286Z,-4.70
2023-02-28T05:34:47.294Z,-4.60
2023-02-28T05:37:17.812Z,-4.60
2023-02-28T05:39:49.423Z,-4.60
2023-02-28T05:42:19.244Z,-4.50
2023-02-28T05:44:49.571Z,-4.40
2023-02-28T05:47:19.092Z,-4.40
2023-02-28T05:49:48.692Z,-4.40
2023-02-28T05:52:18.264Z,-4.30
2023-02-28T05:54:51.009Z,-4.40
2023-02-28T05:57:24.606Z,-4.30
2023-02-28T05:59:55.113Z,-4.30
2023-02-28T06:02:24.526Z,-4.30
2023-02-28T06:04:54.479Z,-4.20
2023-02-28T06:07:24.744Z,-4.20
2023-02-28T06:09:56.439Z,-4.10
2023-02-28T06:12:25.896Z,-4.10
2023-02-28T06:14:56.294Z,-4.00
2023-02-28T06:17:25.706Z,-4.00
2023-02-28T06:19:55.612Z,-4.00
2023-02-28T06:22:24.978Z,-3.90
2023-02-28T06:24:57.296Z,-3.90
2023-02-28T06:27:26.634Z,-3.80
2023-02-28T06:29:57.815Z,-3.80
2023-02-28T06:32:27.353Z,-3.70
2023-02-28T06:34:58.647Z,-3.60
2023-02-28T06:37:28.576Z,-3.50
2023-02-28T06:40:00.236Z,-3.40
2023-02-28T06:42:32.126Z,-3.30
2023-02-28T06:45:04.570Z,-3.10
2023-02-28T06:47:34.936Z,-3.00
2023-02-28T06:50:05.471Z,-2.90
2023-02-28T06:52:37.465Z,-2.70
2023-02-28T06:55:10.507Z,-2.60
2023-02-28T06:57:39.918Z,-2.50
2023-02-28T07:00:11.827Z,-2.40
2023-02-28T07:02:41.482Z,-2.20
2023-02-28T07:05:11.693Z,-2.10
2023-02-28T07:07:44.899Z,-2.00
2023-02-28T07:10:20.135Z,-1.90
2023-02-28T07:12:49.895Z,-1.80
2023-02-28T07:15:19.626Z,-1.70
2023-02-28T07:17:49.482Z,-1.60
2023-02-28T07:20:20.010Z,-1.60
2023-02-28T07:22:56.427Z,-1.50
2023-02-28T07:25:29.776Z,-1.50
2023-02-28T07:28:00.532Z,-1.40
2023-02-28T07:30:30.262Z,-1.30
2023-02-28T07:32:59.659Z,-1.20
2023-02-28T07:35:29.515Z,-1.10
2023-02-28T07:38:00.524Z,-1.00
2023-02-28T07:40:32.197Z,-0.90
2023-02-28T07:43:02.935Z,-0.80
2023-02-28T07:45:35.577Z,-0.70
2023-02-28T07:48:05.287Z,-0.70
2023-02-28T07:50:35.803Z,-0.60
2023-02-28T07:53:05.783Z,-0.50
2023-02-28T07:55:36.855Z,-0.40
2023-02-28T07:58:06.326Z,-0.40
2023-02-28T08:00:36.199Z,-0.40
2023-02-28T08:03:05.715Z,-0.30
2023-02-28T08:05:35.456Z,-0.20
2023-02-28T08:08:04.695Z,-0.10
2023-02-28T08:10:36.003Z,-0.10
2023-02-28T08:13:05.390Z,-0.10
2023-02-28T08:15:35.105Z,0.00
2023-02-28T08:18:04.705Z,0.10
2023-02-28T08:20:34.692Z,0.20
2023-02-28T08:23:04.006Z,0.20
2023-02-28T08:25:33.777Z,0.20
2023-02-28T08:28:04.751Z,0.30
2023-02-28T08:30:35.392Z,0.30
2023-02-28T08:33:05.244Z,0.40
2023-02-28T08:35:34.931Z,0.50
2023-02-28T08:38:04.763Z,0.50
2023-02-28T08:40:34.751Z,0.70
2023-02-28T08:43:05.691Z,0.70
2023-02-28T08:45:35.383Z,0.90
2023-02-28T08:48:04.701Z,1.00
2023-02-28T08:50:34.284Z,1.10
2023-02-28T08:53:03.544Z,1.10
2023-02-28T08:55:33.903Z,1.10
2023-02-28T08:58:04.655Z,1.20
2023-02-28T09:00:34.232Z,1.20
2023-02-28T09:03:03.523Z,1.30
2023-02-28T09:05:33.629Z,1.40
2023-02-28T09:08:02.908Z,1.50
2023-02-28T09:10:32.777Z,1.50
2023-02-28T09:13:02.006Z,1.60
2023-02-28T09:15:33.049Z,1.60
2023-02-28T09:18:02.420Z,1.60
2023-02-28T09:20:32.035Z,1.60
2023-02-28T09:23:01.636Z,1.60
2023-02-28T09:25:31.466Z,1.70
2023-02-28T09:28:01.278Z,1.80
2023-02-28T09:30:33.325Z,1.70
2023-02-28T09:33:02.549Z,1.80
2023-02-28T09:35:33.319Z,1.90
2023-02-28T09:38:04.030Z,1.80
2023-02-28T09:40:33.883Z,2.00
2023-02-28T09:43:03.834Z,2.10
2023-02-28T09:45:38.252Z,2.20
2023-02-28T09:48:13.482Z,2.30
2023-02-28T09:50:48.008Z,2.40
2023-02-28T09:53:24.063Z,2.50
2023-02-28T09:55:58.342Z,2.50
2023-02-28T09:58:34.510Z,2.80
2023-02-28T10:01:10.114Z,2.80
2023-02-28T10:03:43.010Z,2.90
2023-02-28T10:06:19.861Z,3.00
2023-02-28T10:08:58.870Z,3.00
2023-02-28T10:11:29.583Z,3.20
2023-02-28T10:14:05.701Z,3.20
2023-02-28T10:16:42.902Z,3.20
2023-02-28T10:19:17.583Z,3.30
2023-02-28T10:21:53.551Z,3.30
2023-02-28T10:24:29.085Z,3.20
2023-02-28T10:27:03.927Z,3.20
2023-02-28T10:29:35.524Z,3.40
2023-02-28T10:32:07.241Z,3.50
2023-02-28T10:34:36.654Z,3.60
2023-02-28T10:37:10.356Z,3.70
2023-02-28T10:39:42.136Z,3.70
2023-02-28T10:42:28.027Z,3.70
2023-02-28T10:45:10.551Z,3.50
2023-02-28T10:47:54.960Z,3.60
2023-02-28T10:50:35.284Z,3.70
2023-02-28T10:53:20.142Z,3.90
2023-02-28T10:56:00.237Z,4.00
2023-02-28T10:58:33.318Z,4.10
2023-02-28T11:01:03.084Z,4.40
2023-02-28T11:03:37.334Z,4.60
2023-02-28T11:06:15.153Z,5.20
2023-02-28T11:08:51.217Z,6.10
2023-02-28T11:11:21.676Z,6.80
2023-02-28T11:13:55.662Z,7.50
2023-02-28T11:16:34.391Z,8.40
2023-02-28T11:19:09.395Z,8.80
2023-02-28T11:21:41.535Z,9.30
2023-02-28T11:24:22.553Z,9.80
2023-02-28T11:26:53.652Z,10.30
2023-02-28T11:29:25.876Z,10.60
2023-02-28T11:32:10.062Z,10.30
2023-02-28T11:34:42.925Z,10.60
2023-02-28T11:37:16.129Z,11.00
2023-02-28T11:39:47.926Z,11.00
2023-02-28T11:42:38.794Z,11.10
2023-02-28T11:45:24.621Z,11.50
2023-02-28T11:48:03.437Z,11.00
2023-02-28T11:50:57.236Z,10.80
2023-02-28T11:53:53.240Z,11.10
2023-02-28T11:56:33.934Z,11.70
2023-02-28T11:59:32.050Z,12.50
2023-02-28T12:02:19.935Z,12.50
2023-02-28T12:05:01.654Z,12.60
2023-02-28T12:07:42.055Z,13.20
2023-02-28T12:10:23.132Z,12.50
2023-02-28T12:13:07.442Z,11.10
2023-02-28T12:16:04.831Z,11.00
2023-02-28T12:18:56.472Z,10.90
2023-02-28T12:21:38.090Z,11.00
2023-02-28T12:24:32.464Z,11.20
2023-02-28T12:27:06.512Z,11.60
2023-02-28T12:29:43.743Z,10.70
2023-02-28T12:32:19.343Z,11.30
2023-02-28T12:34:52.957Z,12.10
2023-02-28T12:37:28.344Z,12.60
2023-02-28T12:40:06.816Z,12.70
2023-02-28T12:42:42.690Z,12.70
2023-02-28T12:45:20.973Z,12.30
2023-02-28T12:47:55.100Z,13.00
2023-02-28T12:50:26.756Z,12.90
2023-02-28T12:53:03.525Z,13.20
2023-02-28T12:55:43.442Z,12.50
2023-02-28T12:58:20.043Z,11.90
2023-02-28T13:01:19.092Z,11.10
2023-02-28T13:04:26.486Z,11.60
2023-02-28T13:07:10.783Z,12.40
2023-02-28T13:09:41.307Z,13.00
2023-02-28T13:12:17.802Z,13.00
2023-02-28T13:14:48.198Z,13.20
2023-02-28T13:17:22.456Z,12.90
2023-02-28T13:20:01.131Z,13.10
2023-02-28T13:22:43.267Z,13.30
2023-02-28T13:25:54.921Z,12.90
2023-02-28T13:29:03.720Z,12.80
2023-02-28T13:31:35.464Z,12.40
2023-02-28T13:34:16.197Z,12.20
2023-02-28T13:36:45.511Z,12.30
2023-02-28T13:39:50.319Z,12.30
2023-02-28T13:42:35.630Z,12.70
2023-02-28T13:45:26.277Z,12.50
2023-02-28T13:48:03.185Z,12.10
2023-02-28T13:50:36.398Z,12.00
2023-02-28T13:53:41.159Z,12.20
2023-02-28T13:56:23.952Z,12.60
2023-02-28T13:58:58.590Z,12.80
2023-02-28T14:01:54.399Z,12.80
2023-02-28T14:04:53.643Z,12.40
2023-02-28T14:07:30.185Z,11.50
2023-02-28T14:10:07.213Z,11.30
2023-02-28T14:13:04.247Z,10.50
2023-02-28T14:16:03.913Z,9.60
2023-02-28T14:18:36.170Z,9.50
2023-02-28T14:21:15.187Z,9.60
2023-02-28T14:23:59.701Z,9.90
2023-02-28T14:26:55.318Z,10.60
2023-02-28T14:29:40.860Z,10.30
2023-02-28T14:32:17.597Z,10.20
2023-02-28T14:34:55.606Z,9.90
2023-02-28T14:37:31.523Z,9.30
2023-02-28T14:40:05.994Z,9.50
2023-02-28T14:42:39.027Z,9.70
2023-02-28T14:45:19.742Z,10.10
2023-02-28T14:47:50.061Z,10.50
2023-02-28T14:50:25.048Z,10.90
2023-02-28T14:52:56.336Z,11.50
2023-02-28T14:55:30.617Z,11.80
2023-02-28T14:58:01.875Z,12.20
2023-02-28T15:00:33.549Z,11.60
2023-02-28T15:03:14.996Z,11.30
2023-02-28T15:05:45.050Z,11.20
2023-02-28T15:08:16.620Z,10.90
2023-02-28T15:10:53.170Z,10.70
2023-02-28T15:13:23.219Z,10.40
2023-02-28T15:16:05.076Z,9.70
2023-02-28T15:18:43.587Z,8.70
2023-02-28T15:21:18.781Z,7.90
2023-02-28T15:23:52.534Z,7.40
2023-02-28T15:26:28.157Z,7.00
2023-02-28T15:29:02.478Z,6.50
2023-02-28T15:31:50.314Z,6.30
2023-02-28T15:34:37.005Z,6.20
2023-02-28T15:37:31.271Z,6.00
2023-02-28T15:40:07.631Z,5.80
2023-02-28T15:42:38.783Z,5.60
2023-02-28T15:45:29.062Z,5.30
2023-02-28T15:48:12.236Z,5.20
2023-02-28T15:50:43.783Z,5.10
2023-02-28T15:53:18.994Z,4.90
2023-02-28T15:55:54.579Z,4.90
2023-02-28T15:58:26.823Z,4.80
2023-02-28T16:01:20.285Z,4.60
2023-02-28T16:03:52.425Z,4.50
2023-02-28T16:06:45.732Z,4.40
2023-02-28T16:09:17.168Z,4.30
2023-02-28T16:11:47.317Z,4.20
2023-02-28T16:14:21.021Z,4.10
2023-02-28T16:16:53.012Z,4.00
2023-02-28T16:19:23.607Z,3.80
2023-02-28T16:21:52.892Z,3.70
2023-02-28T16:24:23.026Z,3.70
2023-02-28T16:26:55.902Z,3.80
2023-02-28T16:29:32.394Z,3.70
2023-02-28T16:32:02.331Z,3.70
2023-02-28T16:34:32.710Z,3.60
2023-02-28T16:37:02.096Z,3.50
2023-02-28T16:39:31.739Z,3.50
2023-02-28T16:42:00.994Z,3.40
2023-02-28T16:44:35.039Z,3.30
2023-02-28T16:47:05.742Z,3.10
2023-02-28T16:49:35.621Z,3.00
2023-02-28T16:52:05.832Z,3.00
2023-02-28T16:54:35.947Z,2.80
2023-02-28T16:57:05.437Z,2.70
2023-02-28T16:59:36.576Z,2.70
2023-02-28T17:02:14.209Z,2.80
2023-02-28T17:04:44.288Z,2.70
2023-02-28T17:07:17.096Z,2.60
2023-02-28T17:09:47.581Z,2.50
2023-02-28T17:12:16.943Z,2.50
2023-02-28T17:14:48.317Z,2.50
2023-02-28T17:17:19.799Z,2.50
2023-02-28T17:19:49.631Z,2.50
2023-02-28T17:22:19.047Z,2.50
2023-02-28T17:24:49.191Z,2.50
2023-02-28T17:27:18.598Z,2.40
2023-02-28T17:29:49.828Z,2.40
2023-02-28T17:32:20.310Z,2.30
2023-02-28T17:34:50.113Z,2.30
2023-02-28T17:37:19.449Z,2.30
2023-02-28T17:39:49.929Z,2.20
2023-02-28T17:42:20.317Z,2.20
2023-02-28T17:44:52.999Z,2.20
2023-02-28T17:47:22.268Z,2.20
2023-02-28T17:49:52.243Z,2.20
2023-02-28T17:52:23.488Z,2.20
2023-02-28T17:54:53.232Z,2.10
2023-02-28T17:57:23.237Z,2.20
2023-02-28T17:59:54.542Z,2.20
2023-02-28T18:02:24.259Z,2.10
2023-02-28T18:04:54.965Z,2.10
2023-02-28T18:07:26.216Z,2.10
2023-02-28T18:09:56.080Z,2.10
2023-02-28T18:12:25.530Z,2.00
2023-02-28T18:14:56.618Z,2.00
2023-02-28T18:17:25.940Z,1.90
2023-02-28T18:19:56.175Z,2.00
2023-02-28T18:22:25.619Z,1.80
2023-02-28T18:24:55.305Z,1.80
2023-02-28T18:27:24.611Z,1.70
2023-02-28T18:29:57.059Z,1.70
2023-02-28T18:32:26.533Z,1.80
2023-02-28T18:34:56.722Z,1.80
2023-02-28T18:37:48.147Z,1.80
2023-02-28T18:40:38.347Z,1.80
2023-02-28T18:43:15.350Z,1.90
2023-02-28T18:45:50.727Z,1.90
2023-02-28T18:48:33.787Z,2.00
2023-02-28T18:51:13.141Z,1.90
2023-02-28T18:54:06.557Z,1.90
2023-02-28T18:56:51.354Z,1.90
2023-02-28T18:59:32.486Z,1.90
2023-02-28T19:02:15.439Z,1.90
2023-02-28T19:07:52.988Z,1.90
2023-02-28T19:10:27.606Z,1.80
2023-02-28T19:13:07.616Z,1.70
2023-02-28T19:18:32.911Z,1.70
2023-02-28T19:21:08.475Z,1.80
2023-02-28T19:26:42.986Z,1.70
2023-02-28T19:29:21.399Z,1.70
2023-02-28T19:32:12.209Z,1.70
2023-02-28T19:34:46.575Z,1.60
2023-02-28T19:40:32.838Z,1.60
2023-02-28T19:43:09.221Z,1.60
2023-02-28T19:45:55.261Z,1.60
2023-02-28T19:51:49.290Z,1.50
2023-02-28T19:54:21.696Z,1.50
2023-02-28T19:57:14.016Z,1.40
2023-02-28T19:59:58.650Z,1.40
2023-02-28T20:08:32.439Z,1.40
2023-02-28T20:11:08.104Z,1.30
2023-02-28T20:13:47.708Z,1.30
2023-02-28T20:16:27.313Z,1.30
2023-02-28T20:21:45.665Z,1.20
2023-02-28T20:27:17.557Z,1.10
2023-02-28T20:29:53.041Z,1.10
2023-02-28T20:35:31.553Z,1.10
2023-02-28T20:38:15.158Z,1.10
2023-02-28T20:43:47.984Z,1.10
2023-02-28T20:46:30.075Z,1.10
2023-02-28T20:49:04.178Z,1.00
2023-02-28T20:51:44.453Z,1.00
2023-02-28T20:54:49.014Z,1.10
2023-02-28T20:57:27.315Z,1.00
2023-02-28T21:02:56.033Z,1.00
2023-02-28T21:05:41.659Z,1.00
2023-02-28T21:08:13.313Z,1.00
2023-02-28T21:11:02.453Z,0.90
2023-02-28T21:13:53.797Z,1.00
2023-02-28T21:16:43.171Z,1.00
2023-02-28T21:19:20.650Z,1.00
2023-02-28T21:21:54.584Z,1.00
2023-02-28T21:24:24.815Z,1.00
2023-02-28T21:27:09.365Z,0.90
2023-02-28T21:29:56.922Z,0.90
2023-02-28T21:32:30.218Z,1.00
2023-02-28T21:35:02.303Z,0.90
2023-02-28T21:37:40.549Z,1.00
2023-02-28T21:40:24.919Z,1.00
2023-02-28T21:43:10.723Z,0.90
2023-02-28T21:45:54.799Z,0.90
2023-02-28T21:48:36.368Z,1.00
2023-02-28T21:51:10.473Z,0.90
2023-02-28T21:53:42.384Z,0.90
2023-02-28T21:56:29.283Z,1.00
2023-02-28T21:59:12.615Z,0.90
2023-02-28T22:01:54.321Z,0.90
2023-02-28T22:04:35.566Z,0.90
2023-02-28T22:07:07.984Z,0.90
2023-02-28T22:09:44.563Z,0.90
2023-02-28T22:12:28.405Z,0.90
2023-02-28T22:15:28.193Z,0.90
2023-02-28T22:18:01.777Z,0.90
2023-02-28T22:20:35.868Z,0.90
2023-02-28T22:23:13.352Z,0.90
2023-02-28T22:25:52.249Z,0.90
2023-02-28T22:28:30.868Z,0.90
2023-02-28T22:31:13.826Z,0.90
2023-02-28T22:33:55.493Z,0.90
2023-02-28T22:36:33.754Z,0.90
2023-02-28T22:39:10.221Z,0.90
2023-02-28T22:41:40.437Z,0.90
2023-02-28T22:44:19.300Z,0.90
2023-02-28T22:46:54.210Z,0.80
2023-02-28T22:49:32.860Z,0.90
2023-02-28T22:52:07.564Z,0.90
2023-02-28T22:54:50.899Z,0.90
2023-02-28T22:57:23.079Z,0.90
2023-02-28T23:00:03.292Z,0.90
2023-02-28T23:02:42.065Z,1.00
2023-02-28T23:05:27.671Z,1.00
2023-02-28T23:08:03.896Z,1.10
2023-02-28T23:10:47.175Z,1.10
2023-02-28T23:13:27.597Z,1.10
2023-02-28T23:16:03.646Z,1.10
2023-02-28T23:18:41.330Z,1.20
2023-02-28T23:21:21.566Z,1.10
2023-02-28T23:24:02.902Z,1.20
2023-02-28T23:26:52.170Z,1.20
2023-02-28T23:29:28.890Z,1.20
2023-02-28T23:32:03.203Z,1.20
2023-02-28T23:34:46.336Z,1.20
2023-02-28T23:37:21.786Z,1.30
2023-02-28T23:40:05.400Z,1.30
2023-02-28T23:42:37.059Z,1.30
2023-02-28T23:45:12.518Z,1.30
2023-02-28T23:47:48.952Z,1.30
2023-02-28T23:50:23.030Z,1.40
2023-02-28T23:53:07.295Z,1.40
2023-02-28T23:55:45.426Z,1.40
2023-02-28T23:58:28.096Z,1.40
